sensor_id;sensor_type;location;lat;lon;timestamp;P1;durP1;ratioP1;P2;durP2;ratioP2
59458;SDS011;45269;43.568;22.244;2024-02-14T00:00:52;47.65;;;38.85;;
59458;SDS011;45269;43.568;22.244;2024-02-14T00:03:17;64.68;;;53.30;;
59458;SDS011;45269;43.568;22.244;2024-02-14T00:05:45;48.70;;;41.85;;
59458;SDS011;45269;43.568;22.244;2024-02-14T00:08:10;36.08;;;32.35;;
59458;SDS011;45269;43.568;22.244;2024-02-14T00:10:39;73.78;;;62.13;;
59458;SDS011;45269;43.568;22.244;2024-02-14T00:13:04;61.45;;;54.67;;
59458;SDS011;45269;43.568;22.244;2024-02-14T00:15:31;47.67;;;42.70;;
59458;SDS011;45269;43.568;22.244;2024-02-14T00:17:56;40.58;;;36.53;;
59458;SDS011;45269;43.568;22.244;2024-02-14T00:20:21;38.85;;;35.08;;
59458;SDS011;45269;43.568;22.244;2024-02-14T00:22:47;31.38;;;28.48;;
59458;SDS011;45269;43.568;22.244;2024-02-14T00:25:13;32.80;;;29.60;;
59458;SDS011;45269;43.568;22.244;2024-02-14T00:27:38;34.10;;;30.65;;
59458;SDS011;45269;43.568;22.244;2024-02-14T00:30:04;37.28;;;33.38;;
59458;SDS011;45269;43.568;22.244;2024-02-14T00:32:30;37.75;;;33.95;;
59458;SDS011;45269;43.568;22.244;2024-02-14T00:34:56;43.85;;;39.08;;
59458;SDS011;45269;43.568;22.244;2024-02-14T00:37:21;32.95;;;29.70;;
59458;SDS011;45269;43.568;22.244;2024-02-14T00:39:47;30.25;;;27.25;;
59458;SDS011;45269;43.568;22.244;2024-02-14T00:42:15;33.28;;;29.98;;
59458;SDS011;45269;43.568;22.244;2024-02-14T00:44:40;32.42;;;29.20;;
59458;SDS011;45269;43.568;22.244;2024-02-14T00:47:05;36.20;;;32.58;;
59458;SDS011;45269;43.568;22.244;2024-02-14T00:49:34;31.77;;;28.65;;
59458;SDS011;45269;43.568;22.244;2024-02-14T00:51:59;30.38;;;27.30;;
59458;SDS011;45269;43.568;22.244;2024-02-14T00:54:24;33.30;;;29.92;;
59458;SDS011;45269;43.568;22.244;2024-02-14T00:56:50;34.38;;;31.20;;
59458;SDS011;45269;43.568;22.244;2024-02-14T00:59:15;31.17;;;28.08;;
59458;SDS011;45269;43.568;22.244;2024-02-14T01:01:41;30.35;;;27.30;;
59458;SDS011;45269;43.568;22.244;2024-02-14T01:04:07;32.30;;;29.02;;
59458;SDS011;45269;43.568;22.244;2024-02-14T01:06:32;26.77;;;24.10;;
59458;SDS011;45269;43.568;22.244;2024-02-14T01:08:57;27.42;;;24.63;;
59458;SDS011;45269;43.568;22.244;2024-02-14T01:11:23;27.08;;;24.45;;
59458;SDS011;45269;43.568;22.244;2024-02-14T01:13:48;28.77;;;25.48;;
59458;SDS011;45269;43.568;22.244;2024-02-14T01:16:13;27.88;;;25.17;;
59458;SDS011;45269;43.568;22.244;2024-02-14T01:18:39;25.95;;;23.02;;
59458;SDS011;45269;43.568;22.244;2024-02-14T01:21:04;27.20;;;24.60;;
59458;SDS011;45269;43.568;22.244;2024-02-14T01:23:30;25.92;;;23.63;;
59458;SDS011;45269;43.568;22.244;2024-02-14T01:25:56;29.33;;;26.33;;
59458;SDS011;45269;43.568;22.244;2024-02-14T01:28:21;27.48;;;24.75;;
59458;SDS011;45269;43.568;22.244;2024-02-14T01:30:47;28.17;;;25.50;;
59458;SDS011;45269;43.568;22.244;2024-02-14T01:33:12;27.70;;;25.10;;
59458;SDS011;45269;43.568;22.244;2024-02-14T01:35:37;32.42;;;29.10;;
59458;SDS011;45269;43.568;22.244;2024-02-14T01:38:03;32.95;;;29.85;;
59458;SDS011;45269;43.568;22.244;2024-02-14T01:40:28;33.38;;;30.05;;
59458;SDS011;45269;43.568;22.244;2024-02-14T01:42:54;31.58;;;28.55;;
59458;SDS011;45269;43.568;22.244;2024-02-14T01:45:20;31.10;;;28.20;;
59458;SDS011;45269;43.568;22.244;2024-02-14T01:47:46;29.45;;;26.80;;
59458;SDS011;45269;43.568;22.244;2024-02-14T01:50:11;27.98;;;25.23;;
59458;SDS011;45269;43.568;22.244;2024-02-14T01:52:37;34.10;;;30.92;;
59458;SDS011;45269;43.568;22.244;2024-02-14T01:55:04;31.40;;;28.38;;
59458;SDS011;45269;43.568;22.244;2024-02-14T01:57:30;32.65;;;29.55;;
59458;SDS011;45269;43.568;22.244;2024-02-14T01:59:56;34.40;;;31.20;;
59458;SDS011;45269;43.568;22.244;2024-02-14T02:02:23;31.73;;;28.75;;
59458;SDS011;45269;43.568;22.244;2024-02-14T02:04:51;32.17;;;29.10;;
59458;SDS011;45269;43.568;22.244;2024-02-14T02:07:16;33.25;;;30.10;;
59458;SDS011;45269;43.568;22.244;2024-02-14T02:09:44;37.10;;;33.67;;
59458;SDS011;45269;43.568;22.244;2024-02-14T02:12:09;34.95;;;31.65;;
59458;SDS011;45269;43.568;22.244;2024-02-14T02:14:34;33.45;;;30.33;;
59458;SDS011;45269;43.568;22.244;2024-02-14T02:17:00;35.13;;;31.83;;
59458;SDS011;45269;43.568;22.244;2024-02-14T02:19:25;35.05;;;31.95;;
59458;SDS011;45269;43.568;22.244;2024-02-14T02:21:50;35.75;;;32.45;;
59458;SDS011;45269;43.568;22.244;2024-02-14T02:24:17;34.70;;;31.60;;
59458;SDS011;45269;43.568;22.244;2024-02-14T02:26:43;34.40;;;31.40;;
59458;SDS011;45269;43.568;22.244;2024-02-14T02:29:09;36.08;;;32.88;;
59458;SDS011;45269;43.568;22.244;2024-02-14T02:31:34;39.10;;;35.28;;
59458;SDS011;45269;43.568;22.244;2024-02-14T02:33:59;38.30;;;34.65;;
59458;SDS011;45269;43.568;22.244;2024-02-14T02:36:25;37.67;;;34.15;;
59458;SDS011;45269;43.568;22.244;2024-02-14T02:38:50;39.38;;;35.63;;
59458;SDS011;45269;43.568;22.244;2024-02-14T02:41:16;43.17;;;39.10;;
59458;SDS011;45269;43.568;22.244;2024-02-14T02:43:42;41.17;;;37.47;;
59458;SDS011;45269;43.568;22.244;2024-02-14T02:46:10;34.95;;;31.77;;
59458;SDS011;45269;43.568;22.244;2024-02-14T02:48:36;30.80;;;27.88;;
59458;SDS011;45269;43.568;22.244;2024-02-14T02:51:01;34.03;;;30.83;;
59458;SDS011;45269;43.568;22.244;2024-02-14T02:53:28;32.97;;;29.98;;
59458;SDS011;45269;43.568;22.244;2024-02-14T02:56:13;31.75;;;28.75;;
59458;SDS011;45269;43.568;22.244;2024-02-14T02:58:40;31.85;;;29.05;;
59458;SDS011;45269;43.568;22.244;2024-02-14T03:01:07;30.10;;;27.25;;
59458;SDS011;45269;43.568;22.244;2024-02-14T03:03:33;30.30;;;27.52;;
59458;SDS011;45269;43.568;22.244;2024-02-14T03:05:58;29.83;;;27.30;;
59458;SDS011;45269;43.568;22.244;2024-02-14T03:08:24;31.10;;;28.30;;
59458;SDS011;45269;43.568;22.244;2024-02-14T03:10:51;30.88;;;28.08;;
59458;SDS011;45269;43.568;22.244;2024-02-14T03:13:16;28.25;;;25.83;;
59458;SDS011;45269;43.568;22.244;2024-02-14T03:15:42;30.58;;;27.88;;
59458;SDS011;45269;43.568;22.244;2024-02-14T03:18:09;30.00;;;27.17;;
59458;SDS011;45269;43.568;22.244;2024-02-14T03:20:35;30.75;;;27.98;;
59458;SDS011;45269;43.568;22.244;2024-02-14T03:23:01;32.53;;;29.42;;
59458;SDS011;45269;43.568;22.244;2024-02-14T03:25:26;30.08;;;27.17;;
59458;SDS011;45269;43.568;22.244;2024-02-14T03:27:51;28.92;;;26.40;;
59458;SDS011;45269;43.568;22.244;2024-02-14T03:30:21;30.77;;;27.98;;
59458;SDS011;45269;43.568;22.244;2024-02-14T03:32:47;30.05;;;27.45;;
59458;SDS011;45269;43.568;22.244;2024-02-14T03:35:12;30.23;;;27.38;;
59458;SDS011;45269;43.568;22.244;2024-02-14T03:37:39;29.95;;;27.25;;
59458;SDS011;45269;43.568;22.244;2024-02-14T03:40:05;29.67;;;26.85;;
59458;SDS011;45269;43.568;22.244;2024-02-14T03:42:30;28.65;;;26.13;;
59458;SDS011;45269;43.568;22.244;2024-02-14T03:44:55;28.58;;;26.15;;
59458;SDS011;45269;43.568;22.244;2024-02-14T03:47:27;29.00;;;26.50;;
59458;SDS011;45269;43.568;22.244;2024-02-14T03:49:53;26.25;;;23.98;;
59458;SDS011;45269;43.568;22.244;2024-02-14T03:52:18;26.58;;;24.38;;
59458;SDS011;45269;43.568;22.244;2024-02-14T03:54:44;25.70;;;23.50;;
59458;SDS011;45269;43.568;22.244;2024-02-14T03:57:09;25.88;;;23.67;;
59458;SDS011;45269;43.568;22.244;2024-02-14T03:59:37;25.15;;;23.05;;
59458;SDS011;45269;43.568;22.244;2024-02-14T04:02:06;25.58;;;23.48;;
59458;SDS011;45269;43.568;22.244;2024-02-14T04:04:37;26.33;;;24.13;;
59458;SDS011;45269;43.568;22.244;2024-02-14T04:07:04;27.17;;;24.73;;
59458;SDS011;45269;43.568;22.244;2024-02-14T04:09:30;34.40;;;31.23;;
59458;SDS011;45269;43.568;22.244;2024-02-14T04:11:57;28.60;;;26.10;;
59458;SDS011;45269;43.568;22.244;2024-02-14T04:14:23;26.23;;;23.77;;
59458;SDS011;45269;43.568;22.244;2024-02-14T04:16:48;25.98;;;23.77;;
59458;SDS011;45269;43.568;22.244;2024-02-14T04:19:13;28.23;;;25.83;;
59458;SDS011;45269;43.568;22.244;2024-02-14T04:21:42;45.33;;;40.20;;
59458;SDS011;45269;43.568;22.244;2024-02-14T04:24:07;35.22;;;31.60;;
59458;SDS011;45269;43.568;22.244;2024-02-14T04:26:33;27.20;;;24.60;;
59458;SDS011;45269;43.568;22.244;2024-02-14T04:28:59;25.70;;;23.30;;
59458;SDS011;45269;43.568;22.244;2024-02-14T04:31:24;82.43;;;65.85;;
59458;SDS011;45269;43.568;22.244;2024-02-14T04:33:51;129.13;;;104.38;;
59458;SDS011;45269;43.568;22.244;2024-02-14T04:36:18;167.18;;;147.10;;
59458;SDS011;45269;43.568;22.244;2024-02-14T04:38:50;104.30;;;93.53;;
59458;SDS011;45269;43.568;22.244;2024-02-14T04:41:15;63.97;;;57.70;;
59458;SDS011;45269;43.568;22.244;2024-02-14T04:43:41;50.17;;;44.90;;
59458;SDS011;45269;43.568;22.244;2024-02-14T04:46:06;33.83;;;30.52;;
59458;SDS011;45269;43.568;22.244;2024-02-14T04:48:33;37.05;;;33.13;;
59458;SDS011;45269;43.568;22.244;2024-02-14T04:50:58;24.08;;;21.85;;
59458;SDS011;45269;43.568;22.244;2024-02-14T04:53:23;23.95;;;21.65;;
59458;SDS011;45269;43.568;22.244;2024-02-14T04:55:49;21.05;;;19.15;;
59458;SDS011;45269;43.568;22.244;2024-02-14T04:58:14;24.10;;;21.67;;
59458;SDS011;45269;43.568;22.244;2024-02-14T05:00:39;28.00;;;25.17;;
59458;SDS011;45269;43.568;22.244;2024-02-14T05:03:05;24.92;;;22.63;;
59458;SDS011;45269;43.568;22.244;2024-02-14T05:05:31;28.70;;;25.70;;
59458;SDS011;45269;43.568;22.244;2024-02-14T05:07:58;26.77;;;24.15;;
59458;SDS011;45269;43.568;22.244;2024-02-14T05:10:24;29.13;;;26.13;;
59458;SDS011;45269;43.568;22.244;2024-02-14T05:12:49;29.13;;;25.88;;
59458;SDS011;45269;43.568;22.244;2024-02-14T05:15:15;23.73;;;21.52;;
59458;SDS011;45269;43.568;22.244;2024-02-14T05:17:41;24.17;;;21.88;;
59458;SDS011;45269;43.568;22.244;2024-02-14T05:20:07;23.85;;;21.75;;
59458;SDS011;45269;43.568;22.244;2024-02-14T05:22:36;25.48;;;23.08;;
59458;SDS011;45269;43.568;22.244;2024-02-14T05:25:02;28.05;;;25.05;;
59458;SDS011;45269;43.568;22.244;2024-02-14T05:27:27;26.20;;;23.60;;
59458;SDS011;45269;43.568;22.244;2024-02-14T05:29:53;23.77;;;21.38;;
59458;SDS011;45269;43.568;22.244;2024-02-14T05:32:18;26.48;;;23.95;;
59458;SDS011;45269;43.568;22.244;2024-02-14T05:34:43;22.25;;;20.13;;
59458;SDS011;45269;43.568;22.244;2024-02-14T05:37:09;22.70;;;20.48;;
59458;SDS011;45269;43.568;22.244;2024-02-14T05:39:34;21.85;;;19.75;;
59458;SDS011;45269;43.568;22.244;2024-02-14T05:41:59;24.73;;;22.25;;
59458;SDS011;45269;43.568;22.244;2024-02-14T05:44:25;23.25;;;20.65;;
59458;SDS011;45269;43.568;22.244;2024-02-14T05:46:52;28.42;;;25.50;;
59458;SDS011;45269;43.568;22.244;2024-02-14T05:49:18;28.52;;;25.45;;
59458;SDS011;45269;43.568;22.244;2024-02-14T05:51:43;29.23;;;26.13;;
59458;SDS011;45269;43.568;22.244;2024-02-14T05:54:08;35.05;;;30.02;;
59458;SDS011;45269;43.568;22.244;2024-02-14T05:56:34;49.92;;;44.47;;
59458;SDS011;45269;43.568;22.244;2024-02-14T05:58:59;33.00;;;29.73;;
59458;SDS011;45269;43.568;22.244;2024-02-14T06:01:24;151.48;;;90.72;;
59458;SDS011;45269;43.568;22.244;2024-02-14T06:03:50;44.40;;;37.15;;
59458;SDS011;45269;43.568;22.244;2024-02-14T06:06:15;114.40;;;102.78;;
59458;SDS011;45269;43.568;22.244;2024-02-14T06:08:40;29.52;;;26.42;;
59458;SDS011;45269;43.568;22.244;2024-02-14T06:11:06;32.83;;;29.67;;
59458;SDS011;45269;43.568;22.244;2024-02-14T06:13:31;39.65;;;35.38;;
59458;SDS011;45269;43.568;22.244;2024-02-14T06:15:56;44.67;;;39.33;;
59458;SDS011;45269;43.568;22.244;2024-02-14T06:18:22;43.60;;;38.88;;
59458;SDS011;45269;43.568;22.244;2024-02-14T06:20:47;36.83;;;33.05;;
59458;SDS011;45269;43.568;22.244;2024-02-14T06:23:12;51.42;;;46.33;;
59458;SDS011;45269;43.568;22.244;2024-02-14T06:25:38;25.60;;;23.10;;
59458;SDS011;45269;43.568;22.244;2024-02-14T06:28:03;35.95;;;32.47;;
59458;SDS011;45269;43.568;22.244;2024-02-14T06:30:28;37.47;;;33.78;;
59458;SDS011;45269;43.568;22.244;2024-02-14T06:32:54;42.22;;;38.03;;
59458;SDS011;45269;43.568;22.244;2024-02-14T06:35:19;42.70;;;38.30;;
59458;SDS011;45269;43.568;22.244;2024-02-14T06:37:46;41.90;;;37.65;;
59458;SDS011;45269;43.568;22.244;2024-02-14T06:40:11;33.42;;;29.98;;
59458;SDS011;45269;43.568;22.244;2024-02-14T06:42:37;30.60;;;27.70;;
59458;SDS011;45269;43.568;22.244;2024-02-14T06:45:02;28.60;;;25.67;;
59458;SDS011;45269;43.568;22.244;2024-02-14T06:47:28;25.85;;;23.40;;
59458;SDS011;45269;43.568;22.244;2024-02-14T06:49:55;35.45;;;31.85;;
59458;SDS011;45269;43.568;22.244;2024-02-14T06:52:20;36.53;;;32.50;;
59458;SDS011;45269;43.568;22.244;2024-02-14T06:54:46;30.33;;;27.40;;
59458;SDS011;45269;43.568;22.244;2024-02-14T06:57:13;38.33;;;34.13;;
59458;SDS011;45269;43.568;22.244;2024-02-14T06:59:38;36.47;;;31.73;;
59458;SDS011;45269;43.568;22.244;2024-02-14T07:02:04;39.40;;;33.10;;
59458;SDS011;45269;43.568;22.244;2024-02-14T07:04:30;35.00;;;31.30;;
59458;SDS011;45269;43.568;22.244;2024-02-14T07:06:56;31.85;;;28.45;;
59458;SDS011;45269;43.568;22.244;2024-02-14T07:09:21;35.13;;;31.38;;
59458;SDS011;45269;43.568;22.244;2024-02-14T07:11:46;26.48;;;23.98;;
59458;SDS011;45269;43.568;22.244;2024-02-14T07:14:12;28.73;;;25.85;;
59458;SDS011;45269;43.568;22.244;2024-02-14T07:16:37;22.52;;;20.38;;
59458;SDS011;45269;43.568;22.244;2024-02-14T07:19:03;25.95;;;23.45;;
59458;SDS011;45269;43.568;22.244;2024-02-14T07:21:28;34.53;;;28.70;;
59458;SDS011;45269;43.568;22.244;2024-02-14T07:23:53;26.80;;;24.13;;
59458;SDS011;45269;43.568;22.244;2024-02-14T07:26:19;26.92;;;23.40;;
59458;SDS011;45269;43.568;22.244;2024-02-14T07:28:45;27.17;;;24.48;;
59458;SDS011;45269;43.568;22.244;2024-02-14T07:31:10;22.00;;;19.77;;
59458;SDS011;45269;43.568;22.244;2024-02-14T07:33:36;30.90;;;27.73;;
59458;SDS011;45269;43.568;22.244;2024-02-14T07:36:01;30.70;;;27.45;;
59458;SDS011;45269;43.568;22.244;2024-02-14T07:38:27;33.95;;;30.30;;
59458;SDS011;45269;43.568;22.244;2024-02-14T07:40:52;96.65;;;66.97;;
59458;SDS011;45269;43.568;22.244;2024-02-14T07:43:17;71.15;;;61.13;;
59458;SDS011;45269;43.568;22.244;2024-02-14T07:45:43;31.00;;;28.05;;
59458;SDS011;45269;43.568;22.244;2024-02-14T07:48:08;27.23;;;24.88;;
59458;SDS011;45269;43.568;22.244;2024-02-14T07:50:34;35.30;;;31.50;;
59458;SDS011;45269;43.568;22.244;2024-02-14T07:52:59;28.33;;;24.00;;
59458;SDS011;45269;43.568;22.244;2024-02-14T07:55:24;33.28;;;28.75;;
59458;SDS011;45269;43.568;22.244;2024-02-14T07:57:50;23.02;;;20.73;;
59458;SDS011;45269;43.568;22.244;2024-02-14T08:00:15;22.10;;;20.00;;
59458;SDS011;45269;43.568;22.244;2024-02-14T08:02:48;19.92;;;18.02;;
59458;SDS011;45269;43.568;22.244;2024-02-14T08:05:13;17.08;;;15.38;;
59458;SDS011;45269;43.568;22.244;2024-02-14T08:07:38;22.92;;;20.48;;
59458;SDS011;45269;43.568;22.244;2024-02-14T08:10:04;18.38;;;14.98;;
59458;SDS011;45269;43.568;22.244;2024-02-14T08:12:30;17.20;;;15.50;;
59458;SDS011;45269;43.568;22.244;2024-02-14T08:14:55;46.35;;;34.75;;
59458;SDS011;45269;43.568;22.244;2024-02-14T08:17:21;29.40;;;25.92;;
59458;SDS011;45269;43.568;22.244;2024-02-14T08:19:46;51.92;;;39.55;;
59458;SDS011;45269;43.568;22.244;2024-02-14T08:22:11;15.10;;;13.57;;
59458;SDS011;45269;43.568;22.244;2024-02-14T08:24:37;15.23;;;13.75;;
59458;SDS011;45269;43.568;22.244;2024-02-14T08:27:02;11.27;;;10.27;;
59458;SDS011;45269;43.568;22.244;2024-02-14T08:29:31;12.93;;;11.73;;
59458;SDS011;45269;43.568;22.244;2024-02-14T08:31:57;13.00;;;11.80;;
59458;SDS011;45269;43.568;22.244;2024-02-14T08:34:22;15.88;;;14.27;;
59458;SDS011;45269;43.568;22.244;2024-02-14T08:36:47;15.43;;;13.82;;
59458;SDS011;45269;43.568;22.244;2024-02-14T08:39:13;20.58;;;16.48;;
59458;SDS011;45269;43.568;22.244;2024-02-14T08:41:39;14.85;;;13.35;;
59458;SDS011;45269;43.568;22.244;2024-02-14T08:44:06;18.25;;;16.52;;
59458;SDS011;45269;43.568;22.244;2024-02-14T08:46:31;18.10;;;16.17;;
59458;SDS011;45269;43.568;22.244;2024-02-14T08:48:57;32.03;;;24.48;;
59458;SDS011;45269;43.568;22.244;2024-02-14T08:51:22;19.75;;;17.65;;
59458;SDS011;45269;43.568;22.244;2024-02-14T08:53:48;15.75;;;14.15;;
59458;SDS011;45269;43.568;22.244;2024-02-14T08:56:14;14.73;;;13.23;;
59458;SDS011;45269;43.568;22.244;2024-02-14T08:58:39;37.92;;;28.88;;
59458;SDS011;45269;43.568;22.244;2024-02-14T09:01:05;20.27;;;18.17;;
59458;SDS011;45269;43.568;22.244;2024-02-14T09:03:32;25.77;;;22.38;;
59458;SDS011;45269;43.568;22.244;2024-02-14T09:05:57;18.83;;;16.83;;
59458;SDS011;45269;43.568;22.244;2024-02-14T09:08:23;13.68;;;12.35;;
59458;SDS011;45269;43.568;22.244;2024-02-14T09:10:49;24.67;;;22.00;;
59458;SDS011;45269;43.568;22.244;2024-02-14T09:13:14;15.90;;;14.23;;
59458;SDS011;45269;43.568;22.244;2024-02-14T09:15:40;15.80;;;13.88;;
59458;SDS011;45269;43.568;22.244;2024-02-14T09:18:05;19.65;;;16.65;;
59458;SDS011;45269;43.568;22.244;2024-02-14T09:20:30;18.35;;;16.40;;
59458;SDS011;45269;43.568;22.244;2024-02-14T09:22:56;18.42;;;16.58;;
59458;SDS011;45269;43.568;22.244;2024-02-14T09:25:23;15.20;;;13.60;;
59458;SDS011;45269;43.568;22.244;2024-02-14T09:27:50;19.25;;;16.02;;
59458;SDS011;45269;43.568;22.244;2024-02-14T09:30:15;21.42;;;18.52;;
59458;SDS011;45269;43.568;22.244;2024-02-14T09:32:43;24.08;;;20.02;;
59458;SDS011;45269;43.568;22.244;2024-02-14T09:35:08;12.75;;;11.35;;
59458;SDS011;45269;43.568;22.244;2024-02-14T09:37:33;15.98;;;12.50;;
59458;SDS011;45269;43.568;22.244;2024-02-14T09:39:59;16.23;;;14.55;;
59458;SDS011;45269;43.568;22.244;2024-02-14T09:42:28;14.82;;;13.27;;
59458;SDS011;45269;43.568;22.244;2024-02-14T09:44:53;13.70;;;11.73;;
59458;SDS011;45269;43.568;22.244;2024-02-14T09:47:23;22.42;;;18.00;;
59458;SDS011;45269;43.568;22.244;2024-02-14T09:49:49;19.33;;;16.27;;
59458;SDS011;45269;43.568;22.244;2024-02-14T09:52:16;18.50;;;15.07;;
59458;SDS011;45269;43.568;22.244;2024-02-14T09:54:41;21.70;;;18.15;;
59458;SDS011;45269;43.568;22.244;2024-02-14T09:57:07;21.83;;;18.05;;
59458;SDS011;45269;43.568;22.244;2024-02-14T09:59:33;21.55;;;17.95;;
59458;SDS011;45269;43.568;22.244;2024-02-14T10:01:58;16.13;;;13.98;;
59458;SDS011;45269;43.568;22.244;2024-02-14T10:04:24;14.60;;;13.07;;
59458;SDS011;45269;43.568;22.244;2024-02-14T10:06:50;13.30;;;11.70;;
59458;SDS011;45269;43.568;22.244;2024-02-14T10:09:22;30.33;;;26.73;;
59458;SDS011;45269;43.568;22.244;2024-02-14T10:11:48;16.60;;;14.93;;
59458;SDS011;45269;43.568;22.244;2024-02-14T10:14:13;18.10;;;16.20;;
59458;SDS011;45269;43.568;22.244;2024-02-14T10:16:39;13.38;;;10.73;;
59458;SDS011;45269;43.568;22.244;2024-02-14T10:19:04;21.42;;;16.80;;
59458;SDS011;45269;43.568;22.244;2024-02-14T10:21:32;18.75;;;16.75;;
59458;SDS011;45269;43.568;22.244;2024-02-14T10:24:01;19.08;;;15.48;;
59458;SDS011;45269;43.568;22.244;2024-02-14T10:26:26;21.52;;;17.35;;
59458;SDS011;45269;43.568;22.244;2024-02-14T10:28:52;21.95;;;17.67;;
59458;SDS011;45269;43.568;22.244;2024-02-14T10:31:17;27.02;;;21.95;;
59458;SDS011;45269;43.568;22.244;2024-02-14T10:33:43;19.83;;;16.05;;
59458;SDS011;45269;43.568;22.244;2024-02-14T10:36:08;22.83;;;19.00;;
59458;SDS011;45269;43.568;22.244;2024-02-14T10:38:34;19.48;;;17.27;;
59458;SDS011;45269;43.568;22.244;2024-02-14T10:41:00;9.95;;;8.95;;
59458;SDS011;45269;43.568;22.244;2024-02-14T10:43:25;10.90;;;9.80;;
59458;SDS011;45269;43.568;22.244;2024-02-14T10:45:51;8.02;;;7.15;;
59458;SDS011;45269;43.568;22.244;2024-02-14T10:48:17;8.48;;;7.47;;
59458;SDS011;45269;43.568;22.244;2024-02-14T10:50:43;8.13;;;6.97;;
59458;SDS011;45269;43.568;22.244;2024-02-14T10:53:12;7.72;;;7.03;;
59458;SDS011;45269;43.568;22.244;2024-02-14T10:55:38;4.68;;;4.22;;
59458;SDS011;45269;43.568;22.244;2024-02-14T10:58:06;14.50;;;11.05;;
59458;SDS011;45269;43.568;22.244;2024-02-14T11:00:32;14.75;;;12.68;;
59458;SDS011;45269;43.568;22.244;2024-02-14T11:02:57;16.10;;;14.13;;
59458;SDS011;45269;43.568;22.244;2024-02-14T11:05:23;17.83;;;14.15;;
59458;SDS011;45269;43.568;22.244;2024-02-14T11:07:49;11.68;;;10.48;;
59458;SDS011;45269;43.568;22.244;2024-02-14T11:10:17;9.85;;;8.70;;
59458;SDS011;45269;43.568;22.244;2024-02-14T11:12:42;6.25;;;5.70;;
59458;SDS011;45269;43.568;22.244;2024-02-14T11:20:45;18.42;;;15.52;;
59458;SDS011;45269;43.568;22.244;2024-02-14T11:23:20;11.30;;;10.13;;
59458;SDS011;45269;43.568;22.244;2024-02-14T11:25:46;8.63;;;7.80;;
59458;SDS011;45269;43.568;22.244;2024-02-14T11:28:19;9.25;;;8.38;;
59458;SDS011;45269;43.568;22.244;2024-02-14T11:30:49;9.80;;;8.90;;
59458;SDS011;45269;43.568;22.244;2024-02-14T11:33:18;15.93;;;12.23;;
59458;SDS011;45269;43.568;22.244;2024-02-14T11:35:47;7.57;;;6.88;;
59458;SDS011;45269;43.568;22.244;2024-02-14T11:38:15;19.52;;;15.52;;
59458;SDS011;45269;43.568;22.244;2024-02-14T11:40:40;28.60;;;25.48;;
59458;SDS011;45269;43.568;22.244;2024-02-14T11:46:09;15.82;;;13.68;;
59458;SDS011;45269;43.568;22.244;2024-02-14T11:48:35;53.00;;;38.78;;
59458;SDS011;45269;43.568;22.244;2024-02-14T11:51:01;28.30;;;23.77;;
59458;SDS011;45269;43.568;22.244;2024-02-14T11:53:27;26.10;;;21.17;;
59458;SDS011;45269;43.568;22.244;2024-02-14T11:55:53;22.65;;;18.70;;
59458;SDS011;45269;43.568;22.244;2024-02-14T11:58:18;30.40;;;22.77;;
59458;SDS011;45269;43.568;22.244;2024-02-14T12:00:44;46.13;;;33.55;;
59458;SDS011;45269;43.568;22.244;2024-02-14T12:03:11;56.58;;;36.03;;
59458;SDS011;45269;43.568;22.244;2024-02-14T12:05:37;60.97;;;47.47;;
59458;SDS011;45269;43.568;22.244;2024-02-14T12:08:03;20.90;;;15.82;;
59458;SDS011;45269;43.568;22.244;2024-02-14T12:10:31;44.55;;;34.67;;
59458;SDS011;45269;43.568;22.244;2024-02-14T12:12:56;16.85;;;14.75;;
59458;SDS011;45269;43.568;22.244;2024-02-14T12:15:22;15.55;;;13.95;;
59458;SDS011;45269;43.568;22.244;2024-02-14T12:17:47;29.52;;;24.42;;
59458;SDS011;45269;43.568;22.244;2024-02-14T12:20:13;55.10;;;45.88;;
59458;SDS011;45269;43.568;22.244;2024-02-14T12:22:39;31.80;;;28.08;;
59458;SDS011;45269;43.568;22.244;2024-02-14T12:25:05;24.10;;;20.40;;
59458;SDS011;45269;43.568;22.244;2024-02-14T12:27:32;40.60;;;28.88;;
59458;SDS011;45269;43.568;22.244;2024-02-14T12:29:58;23.75;;;19.48;;
59458;SDS011;45269;43.568;22.244;2024-02-14T12:32:23;26.48;;;23.70;;
59458;SDS011;45269;43.568;22.244;2024-02-14T12:34:48;22.45;;;20.08;;
59458;SDS011;45269;43.568;22.244;2024-02-14T12:37:14;21.55;;;18.58;;
59458;SDS011;45269;43.568;22.244;2024-02-14T12:39:40;16.13;;;13.65;;
59458;SDS011;45269;43.568;22.244;2024-02-14T12:42:05;13.63;;;11.65;;
59458;SDS011;45269;43.568;22.244;2024-02-14T12:44:30;19.02;;;14.82;;
59458;SDS011;45269;43.568;22.244;2024-02-14T12:46:56;21.15;;;17.98;;
59458;SDS011;45269;43.568;22.244;2024-02-14T12:49:22;18.23;;;14.65;;
59458;SDS011;45269;43.568;22.244;2024-02-14T12:51:51;11.93;;;9.80;;
59458;SDS011;45269;43.568;22.244;2024-02-14T12:54:16;12.30;;;11.00;;
59458;SDS011;45269;43.568;22.244;2024-02-14T12:56:41;10.48;;;9.38;;
59458;SDS011;45269;43.568;22.244;2024-02-14T12:59:07;16.95;;;15.07;;
59458;SDS011;45269;43.568;22.244;2024-02-14T13:01:32;17.27;;;15.48;;
59458;SDS011;45269;43.568;22.244;2024-02-14T13:03:57;28.20;;;21.52;;
59458;SDS011;45269;43.568;22.244;2024-02-14T13:06:24;21.92;;;18.30;;
59458;SDS011;45269;43.568;22.244;2024-02-14T13:08:50;22.83;;;19.83;;
59458;SDS011;45269;43.568;22.244;2024-02-14T13:11:15;13.65;;;11.85;;
59458;SDS011;45269;43.568;22.244;2024-02-14T13:13:43;20.05;;;15.68;;
59458;SDS011;45269;43.568;22.244;2024-02-14T13:16:09;17.83;;;13.65;;
59458;SDS011;45269;43.568;22.244;2024-02-14T13:18:34;15.65;;;13.35;;
59458;SDS011;45269;43.568;22.244;2024-02-14T13:21:00;29.55;;;24.15;;
59458;SDS011;45269;43.568;22.244;2024-02-14T13:23:26;18.58;;;15.02;;
59458;SDS011;45269;43.568;22.244;2024-02-14T13:25:51;11.60;;;9.48;;
59458;SDS011;45269;43.568;22.244;2024-02-14T13:28:16;17.42;;;15.50;;
59458;SDS011;45269;43.568;22.244;2024-02-14T13:30:42;18.85;;;15.10;;
59458;SDS011;45269;43.568;22.244;2024-02-14T13:33:08;20.45;;;15.48;;
59458;SDS011;45269;43.568;22.244;2024-02-14T13:35:36;28.55;;;22.65;;
59458;SDS011;45269;43.568;22.244;2024-02-14T13:38:03;17.73;;;13.95;;
59458;SDS011;45269;43.568;22.244;2024-02-14T13:40:30;21.58;;;17.52;;
59458;SDS011;45269;43.568;22.244;2024-02-14T13:42:55;36.75;;;25.55;;
59458;SDS011;45269;43.568;22.244;2024-02-14T13:45:21;18.13;;;15.93;;
59458;SDS011;45269;43.568;22.244;2024-02-14T13:47:47;24.75;;;19.38;;
59458;SDS011;45269;43.568;22.244;2024-02-14T13:50:12;33.15;;;24.02;;
59458;SDS011;45269;43.568;22.244;2024-02-14T13:52:38;17.27;;;13.40;;
59458;SDS011;45269;43.568;22.244;2024-02-14T13:55:03;26.23;;;22.25;;
59458;SDS011;45269;43.568;22.244;2024-02-14T13:57:36;18.70;;;14.80;;
59458;SDS011;45269;43.568;22.244;2024-02-14T14:00:06;18.00;;;15.50;;
59458;SDS011;45269;43.568;22.244;2024-02-14T14:02:34;18.35;;;14.85;;
59458;SDS011;45269;43.568;22.244;2024-02-14T14:05:02;12.35;;;11.15;;
59458;SDS011;45269;43.568;22.244;2024-02-14T14:07:28;17.40;;;15.35;;
59458;SDS011;45269;43.568;22.244;2024-02-14T14:09:54;14.45;;;12.52;;